createdAt,value
2023-04-24T00:00:02.687Z,92.5
2023-04-24T00:15:02.913Z,90.5
2023-04-24T00:30:02.370Z,89.7
2023-04-24T00:45:02.803Z,87.7
2023-04-24T01:00:03.268Z,85.0
2023-04-24T01:15:02.697Z,81.8
2023-04-24T01:30:03.132Z,79.3
2023-04-24T01:45:02.741Z,78.0
2023-04-24T02:00:02.992Z,76.4
2023-04-24T02:15:02.458Z,75.8
2023-04-24T02:30:02.885Z,75.7
2023-04-24T02:45:02.302Z,75.8
2023-04-24T03:00:02.775Z,75.3
2023-04-24T03:15:03.223Z,76.2
2023-04-24T03:30:02.735Z,76.7
2023-04-24T03:45:03.102Z,77.2
2023-04-24T04:00:02.728Z,78.3
2023-04-24T04:15:02.965Z,79.1
2023-04-24T04:30:02.436Z,80.5
2023-04-24T04:45:02.866Z,81.1
2023-04-24T05:00:02.315Z,81.8
2023-04-24T05:15:02.740Z,82.2
2023-04-24T05:30:03.186Z,82.3
2023-04-24T05:45:02.749Z,82.2
2023-04-24T06:00:03.095Z,81.4
2023-04-24T06:15:02.732Z,80.1
2023-04-24T06:30:02.947Z,79.2
2023-04-24T06:45:02.342Z,78.9
2023-04-24T07:00:02.984Z,79.8
2023-04-24T07:15:02.217Z,79.1
2023-04-24T07:30:02.757Z,79.6
2023-04-24T07:45:03.162Z,80.3
2023-04-24T08:00:02.766Z,80.2
2023-04-24T08:15:03.009Z,78.5
2023-04-24T08:30:02.427Z,80.3
2023-04-24T08:45:02.879Z,81.8
2023-04-24T09:00:02.323Z,80.5
2023-04-24T09:15:02.781Z,80.2
2023-04-24T09:30:02.190Z,81.2
2023-04-24T10:00:02.061Z,83.0
2023-04-24T10:15:02.517Z,85.1
2023-04-24T10:30:02.959Z,84.5
2023-04-24T10:45:02.382Z,86.1
2023-04-24T11:00:03.109Z,89.7
2023-04-24T11:15:03.665Z,92.3
2023-04-24T11:30:02.982Z,93.8
2023-04-24T11:45:03.464Z,95.1
2023-04-24T12:00:02.800Z,95.6
2023-04-24T12:15:02.336Z,95.8
2023-04-24T12:30:03.400Z,95.9
2023-04-24T12:45:02.840Z,95.9
2023-04-24T13:00:02.278Z,95.9
2023-04-24T13:15:02.834Z,95.7
2023-04-24T13:30:02.293Z,96.4
2023-04-24T13:45:11.081Z,96.4
2023-04-24T14:00:03.027Z,95.7
2023-04-24T14:15:02.490Z,94.6
2023-04-24T14:30:03.045Z,92.6
2023-04-24T14:45:02.306Z,90.9
2023-04-24T15:00:02.857Z,91.2
2023-04-24T15:15:02.230Z,90.2
2023-04-24T15:30:02.838Z,89.4
2023-04-24T15:45:02.084Z,88.6
2023-04-24T16:00:02.545Z,88.2
2023-04-24T16:15:02.978Z,88.2
2023-04-24T16:30:02.426Z,89.3
2023-04-24T16:45:02.864Z,88.5
2023-04-24T17:00:02.260Z,87.2
2023-04-24T17:15:02.883Z,86.9
2023-04-24T17:30:02.162Z,86.7
2023-04-24T17:45:02.610Z,86.8
2023-04-24T18:00:03.042Z,87.8
2023-04-24T18:15:13.607Z,89.7
2023-04-24T18:45:02.332Z,86.2
2023-04-24T19:00:02.886Z,86.7
2023-04-24T19:15:02.208Z,86.5
2023-04-24T19:30:02.891Z,87.0
2023-04-24T19:45:02.085Z,85.0
2023-04-24T20:00:02.548Z,79.8
2023-04-24T20:15:02.960Z,79.5
2023-04-24T20:30:02.434Z,82.1
2023-04-24T20:45:02.926Z,82.5
2023-04-24T21:00:02.268Z,82.7
2023-04-24T21:15:02.932Z,83.2
2023-04-24T21:30:02.181Z,82.7
2023-04-24T21:45:02.652Z,82.7
2023-04-24T22:00:03.071Z,83.6
2023-04-24T22:30:02.944Z,89.3
2023-04-24T22:45:02.322Z,90.9
2023-04-24T23:00:02.918Z,91.8
2023-04-24T23:15:02.198Z,92.7
2023-04-24T23:30:02.616Z,93.4
2023-04-24T23:45:03.099Z,94.0
